Terminal Aerodrome Forecast
Issued by NWS

Home | Current Version | Previous Version | Text Only | Print | Product List | Glossary On
Versions: 1 2 3 4 5 6 7 8 9 10 11 12
000
FTUS44 KOUN 281720
TAFHBR
TAF
KHBR 281720Z 2818/2918 11013G19KT P6SM BKN040
      TEMPO 2823/2903 VRB20G30KT 2SM +TSRA BR OVC012CB
     FM290300 11020KT 5SM -SHRA BR OVC006 PROB30 2903/2909 3SM +TSRA
      BR OVC006CB
     FM291200 15010KT 5SM BR OVC005 PROB30 2912/2918 4SM -SHRA BR
      OVC002=

USA.gov is the U.S. government's official web portal to all federal, state and local government web resources and services.